<?xml version="1.0" encoding="UTF-8" standalone="no" ?>
<gpx xmlns="http://www.topografix.com/GPX/1/1" xmlns:xsi="http://www.w3.org/2001/XMLSchema-instance" xsi:schemaLocation="http://www.topografix.com/GPX/1/1 http://www.topografix.com/GPX/1/1/gpx.xsd" version="1.1" creator="VisuGPX - https://www.visugpx.com">
  <metadata>
    <name>sigean le rieu et les sentiers de roquefort</name>
    <desc><![CDATA[il me manque la fin  car mon gps c'est arrêté............]]></desc>
  </metadata>
  <trk>
    <name><![CDATA[sigean le rieu et les sentiers de roquefort_15]]></name>
    <trkseg>
      <trkpt lat="43.01368" lon="2.94925">
        <ele>81</ele>
        <time>2020-06-03T14:07:49.000Z</time>
      </trkpt>
      <trkpt lat="43.01371" lon="2.94937">
        <ele>80.6</ele>
        <time>2020-06-03T14:07:50.000Z</time>
      </trkpt>
      <trkpt lat="43.01374" lon="2.94949">
        <ele>80</ele>
        <time>2020-06-03T14:07:51.000Z</time>
      </trkpt>
      <trkpt lat="43.01377" lon="2.9496">
        <ele>79.6</ele>
        <time>2020-06-03T14:07:52.000Z</time>
      </trkpt>
      <trkpt lat="43.0138" lon="2.94973">
        <ele>79</ele>
        <time>2020-06-03T14:07:53.000Z</time>
      </trkpt>
      <trkpt lat="43.01383" lon="2.94984">
        <ele>78.4</ele>
        <time>2020-06-03T14:07:54.000Z</time>
      </trkpt>
      <trkpt lat="43.01385" lon="2.94995">
        <ele>78</ele>
        <time>2020-06-03T14:07:55.000Z</time>
      </trkpt>
      <trkpt lat="43.01388" lon="2.95005">
        <ele>77.6</ele>
        <time>2020-06-03T14:07:56.000Z</time>
      </trkpt>
      <trkpt lat="43.0139" lon="2.95014">
        <ele>77</ele>
        <time>2020-06-03T14:07:57.000Z</time>
      </trkpt>
      <trkpt lat="43.01392" lon="2.95022">
        <ele>76.6</ele>
        <time>2020-06-03T14:07:58.000Z</time>
      </trkpt>
      <trkpt lat="43.01394" lon="2.9503">
        <ele>76.2</ele>
        <time>2020-06-03T14:07:59.000Z</time>
      </trkpt>
      <trkpt lat="43.01399" lon="2.95053">
        <ele>76.2</ele>
        <time>2020-06-03T14:08:02.000Z</time>
      </trkpt>
      <trkpt lat="43.014" lon="2.95061">
        <ele>76.2</ele>
        <time>2020-06-03T14:08:03.000Z</time>
      </trkpt>
      <trkpt lat="43.014" lon="2.95094">
        <ele>75.8</ele>
        <time>2020-06-03T14:08:08.000Z</time>
      </trkpt>
      <trkpt lat="43.014" lon="2.95101">
        <ele>75.2</ele>
        <time>2020-06-03T14:08:09.000Z</time>
      </trkpt>
      <trkpt lat="43.014" lon="2.95107">
        <ele>74.8</ele>
        <time>2020-06-03T14:08:10.000Z</time>
      </trkpt>
      <trkpt lat="43.01399" lon="2.95114">
        <ele>74</ele>
        <time>2020-06-03T14:08:11.000Z</time>
      </trkpt>
      <trkpt lat="43.01398" lon="2.95144">
        <ele>74</ele>
        <time>2020-06-03T14:08:15.000Z</time>
      </trkpt>
      <trkpt lat="43.01397" lon="2.95152">
        <ele>74</ele>
        <time>2020-06-03T14:08:16.000Z</time>
      </trkpt>
      <trkpt lat="43.01395" lon="2.9516">
        <ele>73.6</ele>
        <time>2020-06-03T14:08:17.000Z</time>
      </trkpt>
      <trkpt lat="43.01395" lon="2.95169">
        <ele>73.2</ele>
        <time>2020-06-03T14:08:18.000Z</time>
      </trkpt>
      <trkpt lat="43.01394" lon="2.95179">
        <ele>72.8</ele>
        <time>2020-06-03T14:08:19.000Z</time>
      </trkpt>
      <trkpt lat="43.01393" lon="2.95189">
        <ele>72.4</ele>
        <time>2020-06-03T14:08:20.000Z</time>
      </trkpt>
      <trkpt lat="43.01392" lon="2.95199">
        <ele>72</ele>
        <time>2020-06-03T14:08:21.000Z</time>
      </trkpt>
      <trkpt lat="43.01391" lon="2.9521">
        <ele>72</ele>
        <time>2020-06-03T14:08:22.000Z</time>
      </trkpt>
      <trkpt lat="43.01391" lon="2.9522">
        <ele>71.4</ele>
        <time>2020-06-03T14:08:23.000Z</time>
      </trkpt>
      <trkpt lat="43.01391" lon="2.9523">
        <ele>71</ele>
        <time>2020-06-03T14:08:24.000Z</time>
      </trkpt>
      <trkpt lat="43.01391" lon="2.9524">
        <ele>70.6</ele>
        <time>2020-06-03T14:08:25.000Z</time>
      </trkpt>
      <trkpt lat="43.0139" lon="2.95251">
        <ele>70.2</ele>
        <time>2020-06-03T14:08:26.000Z</time>
      </trkpt>
      <trkpt lat="43.01389" lon="2.95262">
        <ele>69.8</ele>
        <time>2020-06-03T14:08:27.000Z</time>
      </trkpt>
      <trkpt lat="43.01387" lon="2.95284">
        <ele>69.8</ele>
        <time>2020-06-03T14:08:29.000Z</time>
      </trkpt>
      <trkpt lat="43.01386" lon="2.95319">
        <ele>69.4</ele>
        <time>2020-06-03T14:08:32.000Z</time>
      </trkpt>
      <trkpt lat="43.01388" lon="2.95329">
        <ele>69</ele>
        <time>2020-06-03T14:08:33.000Z</time>
      </trkpt>
      <trkpt lat="43.01391" lon="2.9534">
        <ele>68.6</ele>
        <time>2020-06-03T14:08:34.000Z</time>
      </trkpt>
      <trkpt lat="43.01395" lon="2.9535">
        <ele>68.2</ele>
        <time>2020-06-03T14:08:35.000Z</time>
      </trkpt>
      <trkpt lat="43.01399" lon="2.95359">
        <ele>67.8</ele>
        <time>2020-06-03T14:08:36.000Z</time>
      </trkpt>
      <trkpt lat="43.01404" lon="2.95368">
        <ele>67.8</ele>
        <time>2020-06-03T14:08:37.000Z</time>
      </trkpt>
      <trkpt lat="43.01419" lon="2.95396">
        <ele>67</ele>
        <time>2020-06-03T14:08:38.000Z</time>
      </trkpt>
      <trkpt lat="43.01425" lon="2.95405">
        <ele>66.6</ele>
        <time>2020-06-03T14:08:42.000Z</time>
      </trkpt>
      <trkpt lat="43.0143" lon="2.95415">
        <ele>66.2</ele>
        <time>2020-06-03T14:08:43.000Z</time>
      </trkpt>
      <trkpt lat="43.01436" lon="2.95425">
        <ele>65.6</ele>
        <time>2020-06-03T14:08:44.000Z</time>
      </trkpt>
      <trkpt lat="43.01442" lon="2.95435">
        <ele>65</ele>
        <time>2020-06-03T14:08:45.000Z</time>
      </trkpt>
      <trkpt lat="43.01448" lon="2.95445">
        <ele>64.4</ele>
        <time>2020-06-03T14:08:46.000Z</time>
      </trkpt>
      <trkpt lat="43.01454" lon="2.95456">
        <ele>63.8</ele>
        <time>2020-06-03T14:08:47.000Z</time>
      </trkpt>
      <trkpt lat="43.0146" lon="2.95467">
        <ele>63.2</ele>
        <time>2020-06-03T14:08:48.000Z</time>
      </trkpt>
      <trkpt lat="43.01466" lon="2.95479">
        <ele>62.6</ele>
        <time>2020-06-03T14:08:49.000Z</time>
      </trkpt>
      <trkpt lat="43.01473" lon="2.9549">
        <ele>61.8</ele>
        <time>2020-06-03T14:08:50.000Z</time>
      </trkpt>
      <trkpt lat="43.01479" lon="2.95502">
        <ele>61.2</ele>
        <time>2020-06-03T14:08:51.000Z</time>
      </trkpt>
      <trkpt lat="43.01486" lon="2.95515">
        <ele>60.4</ele>
        <time>2020-06-03T14:08:52.000Z</time>
      </trkpt>
      <trkpt lat="43.01493" lon="2.95527">
        <ele>59.6</ele>
        <time>2020-06-03T14:08:53.000Z</time>
      </trkpt>
      <trkpt lat="43.01501" lon="2.9554">
        <ele>58.6</ele>
        <time>2020-06-03T14:08:54.000Z</time>
      </trkpt>
      <trkpt lat="43.01509" lon="2.95552">
        <ele>57.6</ele>
        <time>2020-06-03T14:08:55.000Z</time>
      </trkpt>
      <trkpt lat="43.01518" lon="2.95563">
        <ele>56.6</ele>
        <time>2020-06-03T14:08:56.000Z</time>
      </trkpt>
      <trkpt lat="43.01529" lon="2.95574">
        <ele>55.4</ele>
        <time>2020-06-03T14:08:57.000Z</time>
      </trkpt>
      <trkpt lat="43.01539" lon="2.95584">
        <ele>54.4</ele>
        <time>2020-06-03T14:08:58.000Z</time>
      </trkpt>
      <trkpt lat="43.0155" lon="2.95593">
        <ele>53.2</ele>
        <time>2020-06-03T14:08:59.000Z</time>
      </trkpt>
      <trkpt lat="43.0156" lon="2.95602">
        <ele>52</ele>
        <time>2020-06-03T14:09:00.000Z</time>
      </trkpt>
      <trkpt lat="43.01571" lon="2.95612">
        <ele>49.6</ele>
        <time>2020-06-03T14:09:01.000Z</time>
      </trkpt>
      <trkpt lat="43.01581" lon="2.95622">
        <ele>48.6</ele>
        <time>2020-06-03T14:09:02.000Z</time>
      </trkpt>
      <trkpt lat="43.0159" lon="2.95634">
        <ele>47.6</ele>
        <time>2020-06-03T14:09:03.000Z</time>
      </trkpt>
      <trkpt lat="43.01597" lon="2.95647">
        <ele>46.6</ele>
        <time>2020-06-03T14:09:04.000Z</time>
      </trkpt>
      <trkpt lat="43.01604" lon="2.95662">
        <ele>45.6</ele>
        <time>2020-06-03T14:09:05.000Z</time>
      </trkpt>
      <trkpt lat="43.01609" lon="2.95676">
        <ele>44.6</ele>
        <time>2020-06-03T14:09:06.000Z</time>
      </trkpt>
      <trkpt lat="43.01614" lon="2.95689">
        <ele>43.6</ele>
        <time>2020-06-03T14:09:07.000Z</time>
      </trkpt>
      <trkpt lat="43.01619" lon="2.95704">
        <ele>43.2</ele>
        <time>2020-06-03T14:09:08.000Z</time>
      </trkpt>
      <trkpt lat="43.01624" lon="2.95717">
        <ele>42.8</ele>
        <time>2020-06-03T14:09:09.000Z</time>
      </trkpt>
      <trkpt lat="43.01628" lon="2.95731">
        <ele>42.4</ele>
        <time>2020-06-03T14:09:10.000Z</time>
      </trkpt>
      <trkpt lat="43.01633" lon="2.95745">
        <ele>42</ele>
        <time>2020-06-03T14:09:11.000Z</time>
      </trkpt>
      <trkpt lat="43.01637" lon="2.95758">
        <ele>41.6</ele>
        <time>2020-06-03T14:09:12.000Z</time>
      </trkpt>
      <trkpt lat="43.01642" lon="2.95771">
        <ele>41.6</ele>
        <time>2020-06-03T14:09:13.000Z</time>
      </trkpt>
      <trkpt lat="43.01648" lon="2.95781">
        <ele>41.6</ele>
        <time>2020-06-03T14:09:14.000Z</time>
      </trkpt>
      <trkpt lat="43.01657" lon="2.95789">
        <ele>41.2</ele>
        <time>2020-06-03T14:09:15.000Z</time>
      </trkpt>
      <trkpt lat="43.01666" lon="2.95795">
        <ele>40.8</ele>
        <time>2020-06-03T14:09:16.000Z</time>
      </trkpt>
      <trkpt lat="43.01675" lon="2.95799">
        <ele>40.4</ele>
        <time>2020-06-03T14:09:17.000Z</time>
      </trkpt>
      <trkpt lat="43.01684" lon="2.95803">
        <ele>39.8</ele>
        <time>2020-06-03T14:09:18.000Z</time>
      </trkpt>
      <trkpt lat="43.01693" lon="2.95807">
        <ele>39.4</ele>
        <time>2020-06-03T14:09:19.000Z</time>
      </trkpt>
      <trkpt lat="43.01719" lon="2.95817">
        <ele>39.4</ele>
        <time>2020-06-03T14:09:22.000Z</time>
      </trkpt>
      <trkpt lat="43.01768" lon="2.95842">
        <ele>39.4</ele>
        <time>2020-06-03T14:09:28.000Z</time>
      </trkpt>
      <trkpt lat="43.01789" lon="2.95859">
        <ele>39</ele>
        <time>2020-06-03T14:09:31.000Z</time>
      </trkpt>
      <trkpt lat="43.01796" lon="2.95866">
        <ele>38.6</ele>
        <time>2020-06-03T14:09:32.000Z</time>
      </trkpt>
      <trkpt lat="43.01802" lon="2.95874">
        <ele>38.2</ele>
        <time>2020-06-03T14:09:33.000Z</time>
      </trkpt>
      <trkpt lat="43.01808" lon="2.95881">
        <ele>37.8</ele>
        <time>2020-06-03T14:09:34.000Z</time>
      </trkpt>
      <trkpt lat="43.01814" lon="2.95889">
        <ele>37.4</ele>
        <time>2020-06-03T14:09:35.000Z</time>
      </trkpt>
      <trkpt lat="43.01841" lon="2.95928">
        <ele>37.4</ele>
        <time>2020-06-03T14:09:40.000Z</time>
      </trkpt>
    </trkseg>
  </trk>
</gpx>